Mc Ewensville, Pennsylvania
Current Conditions -  °F | °C
As of 8:54 AM on Sunday 21 Dec 2014 (Local Time) from KIPT Reporting Station
Overcast Overcast  
Wind Chill: 26°   Ceiling: 2600
Heat Index: 31°   Visibility: 10mi
Dew Point: 20°   Wind: 5mph
Humidity: 64%   Direction: 330°NNW
Pressure: 30.33"   Gusts: NA
Location:  41.0747°N, 76.8178°W
Report Text: KIPT 211354Z 33004KT 10SM OVC026 M01/M07 A3033 RMK AO2 SLP276 T10061067
Loading
Personal Weather Stations






























Interactive Weather Map New forecast layout! Learn more

10-Day Weather Forecast

Advertisements
Track Severe Weather on mobile